Time;durP1;ratioP1;P1;durP2;ratioP2;P2;SDS_P1;SDS_P2;PMS_P1;PMS_P2;Temp;Humidity;BMP_temperature;BMP_pressure;BME280_temperature;BME280_humidity;BME280_pressure;Samples;Min_cycle;Max_cycle;Signal;HPM_P1;HPM_P2
2024/01/10 00:01:05;;;;;;;0.13;0.08;;;;;;;-1.00;76.16;102807.88;5042719;28;20076;-72
2024/01/10 00:03:32;;;;;;;0.50;0.20;;;;;;;-0.99;76.19;102816.47;5042222;28;20095;-73
2024/01/10 00:05:59;;;;;;;0.30;0.10;;;;;;;-1.02;76.35;102809.47;5040967;28;20045;-73
2024/01/10 00:08:27;;;;;;;0.43;0.13;;;;;;;-1.00;75.97;102815.59;5040476;28;20080;-72
2024/01/10 00:10:55;;;;;;;1.08;0.55;;;;;;;-1.02;75.75;102814.59;5041170;28;20154;-73
2024/01/10 00:13:22;;;;;;;1.08;0.10;;;;;;;-1.02;76.08;102824.88;5041498;28;20048;-78
2024/01/10 00:15:49;;;;;;;0.88;0.10;;;;;;;-1.04;76.52;102824.78;5043741;28;20488;-78
2024/01/10 00:18:15;;;;;;;0.68;0.10;;;;;;;-1.05;76.35;102817.00;5047842;28;20049;-79
2024/01/10 00:20:42;;;;;;;0.45;0.20;;;;;;;-1.06;76.22;102818.69;5044820;28;20111;-79
2024/01/10 00:23:09;;;;;;;0.63;0.10;;;;;;;-1.04;76.65;102823.91;5046874;28;20079;-79
2024/01/10 00:25:37;;;;;;;0.40;0.10;;;;;;;-1.03;75.98;102820.50;5049188;28;20095;-78
2024/01/10 00:28:07;;;;;;;0.60;0.10;;;;;;;-1.05;75.99;102823.00;5048876;28;20049;-79
2024/01/10 00:30:34;;;;;;;0.65;0.30;;;;;;;-1.07;75.98;102818.56;5046643;28;20076;-79
2024/01/10 00:33:01;;;;;;;0.13;0.10;;;;;;;-1.05;75.89;102819.56;5047631;28;20091;-79
2024/01/10 00:35:28;;;;;;;0.30;0.20;;;;;;;-1.06;75.99;102810.06;5047154;28;20072;-79
2024/01/10 00:37:55;;;;;;;0.65;0.10;;;;;;;-1.06;76.16;102815.19;5050400;28;20045;-78
2024/01/10 00:40:22;;;;;;;0.98;0.20;;;;;;;-1.07;76.29;102821.16;5048116;28;20049;-78
2024/01/10 00:42:50;;;;;;;0.30;0.10;;;;;;;-1.10;76.28;102823.53;5044723;28;20084;-78
2024/01/10 00:45:18;;;;;;;0.40;0.10;;;;;;;-1.09;76.33;102825.31;5045905;28;20175;-78
2024/01/10 00:47:45;;;;;;;0.30;0.10;;;;;;;-1.09;76.29;102830.44;5050567;28;20064;-79
2024/01/10 00:50:12;;;;;;;0.25;0.13;;;;;;;-1.10;75.34;102823.53;5047488;28;20045;-78
2024/01/10 00:52:39;;;;;;;0.30;0.10;;;;;;;-1.10;75.52;102823.53;5046426;28;20068;-79
2024/01/10 00:55:06;;;;;;;0.30;0.10;;;;;;;-1.11;76.31;102826.91;5046790;28;20570;-79
2024/01/10 00:57:33;;;;;;;0.40;0.10;;;;;;;-1.12;76.30;102833.72;5052158;28;20072;-78
2024/01/10 01:00:03;;;;;;;0.05;0.05;;;;;;;-1.12;75.33;102825.13;5047584;28;20091;-78
2024/01/10 01:02:30;;;;;;;0.30;0.10;;;;;;;-1.13;75.79;102823.38;5049118;28;20462;-79
2024/01/10 01:04:57;;;;;;;0.20;0.10;;;;;;;-1.14;75.77;102825.06;5049109;28;20487;-79
2024/01/10 01:07:24;;;;;;;0.80;0.10;;;;;;;-1.15;76.12;102824.94;5047192;28;20106;-78
2024/01/10 01:09:51;;;;;;;0.77;0.13;;;;;;;-1.25;75.39;102809.00;5045706;28;20073;-78
2024/01/10 01:12:18;;;;;;;0.10;0.10;;;;;;;-1.17;75.45;102831.69;5047046;28;20072;-78
2024/01/10 01:14:45;;;;;;;0.38;0.10;;;;;;;-1.19;76.11;102823.03;5046799;28;20261;-79
2024/01/10 01:17:14;;;;;;;0.10;0.10;;;;;;;-1.25;75.69;102821.84;5044302;28;20103;-79
2024/01/10 01:19:41;;;;;;;0.22;0.10;;;;;;;-1.24;75.45;102823.63;5046811;28;20045;-78
2024/01/10 01:22:07;;;;;;;0.60;0.20;;;;;;;-1.25;75.71;102832.13;5048336;28;20080;-77
2024/01/10 01:24:34;;;;;;;0.77;0.10;;;;;;;-1.25;75.99;102834.69;5035994;28;20056;-73
2024/01/10 01:27:01;;;;;;;0.10;0.10;;;;;;;-1.29;75.97;102837.88;5039541;28;20161;-73
2024/01/10 01:29:28;;;;;;;0.40;0.20;;;;;;;-1.27;75.39;102833.72;5041501;28;20056;-73
2024/01/10 01:31:55;;;;;;;0.10;0.10;;;;;;;-1.28;75.59;102829.38;5040735;28;20531;-72
2024/01/10 01:34:24;;;;;;;0.30;0.20;;;;;;;-1.29;75.41;102824.16;5046510;28;20095;-78
2024/01/10 01:36:51;;;;;;;0.10;0.10;;;;;;;-1.31;76.15;102828.31;5051207;28;20084;-78
2024/01/10 01:39:18;;;;;;;0.40;0.10;;;;;;;-1.32;76.00;102837.69;5046904;28;20104;-78
2024/01/10 01:41:45;;;;;;;0.30;0.10;;;;;;;-1.33;76.27;102835.03;5047844;28;20124;-78
2024/01/10 01:44:12;;;;;;;0.45;0.30;;;;;;;-1.35;75.76;102837.50;5046379;28;20072;-78
2024/01/10 01:46:40;;;;;;;1.30;0.10;;;;;;;-1.36;76.31;102822.03;5045692;28;20138;-78
2024/01/10 01:49:08;;;;;;;1.15;0.10;;;;;;;-1.35;75.61;102824.66;5049604;28;20078;-78
2024/01/10 01:51:37;;;;;;;0.10;0.10;;;;;;;-1.38;75.86;102821.03;5050440;28;20045;-77
2024/01/10 01:54:08;;;;;;;0.10;0.10;;;;;;;-1.38;75.96;102827.06;5048405;28;20457;-78
2024/01/10 01:56:36;;;;;;;0.20;0.10;;;;;;;-1.37;76.20;102839.13;5039503;28;20136;-78
2024/01/10 01:59:05;;;;;;;0.15;0.10;;;;;;;-1.39;75.96;102844.97;5043579;28;20044;-78
2024/01/10 02:01:32;;;;;;;0.38;0.10;;;;;;;-1.39;76.31;102829.56;5048555;28;20095;-78
2024/01/10 02:04:02;;;;;;;0.28;0.10;;;;;;;-1.38;76.06;102832.19;5046280;28;20543;-78
2024/01/10 02:06:30;;;;;;;0.20;0.10;;;;;;;-1.38;76.01;102826.19;5049566;28;20544;-78
2024/01/10 02:08:59;;;;;;;0.20;0.10;;;;;;;-1.38;76.52;102824.50;5050675;28;20059;-78
2024/01/10 02:11:27;;;;;;;0.20;0.03;;;;;;;-1.39;75.75;102827.88;5047058;28;20052;-78
2024/01/10 02:13:55;;;;;;;0.13;0.10;;;;;;;-1.41;76.30;102832.00;5049862;28;20045;-78
2024/01/10 02:16:22;;;;;;;0.10;0.08;;;;;;;-1.40;76.65;102832.88;5046058;28;20045;-78
2024/01/10 02:18:50;;;;;;;0.30;0.10;;;;;;;-1.40;76.48;102831.22;5050964;28;20094;-78
2024/01/10 02:21:17;;;;;;;0.30;0.10;;;;;;;-1.40;76.39;102828.63;5047123;28;20049;-78
2024/01/10 02:23:44;;;;;;;0.10;0.10;;;;;;;-1.40;76.13;102826.06;5046225;28;20620;-78
2024/01/10 02:26:12;;;;;;;0.13;0.10;;;;;;;-1.44;76.27;102819.00;5045972;28;20080;-79
2024/01/10 02:28:39;;;;;;;0.20;0.05;;;;;;;-1.40;76.58;102832.88;5050274;28;20780;-78
2024/01/10 02:31:07;;;;;;;0.15;0.10;;;;;;;-1.39;76.87;102830.44;5044073;28;20072;-78
2024/01/10 02:33:34;;;;;;;0.20;0.10;;;;;;;-1.40;76.56;102826.06;5045856;28;20083;-75
2024/01/10 02:36:01;;;;;;;0.10;0.10;;;;;;;-1.42;76.07;102822.56;5037755;28;20136;-76
2024/01/10 02:38:28;;;;;;;0.20;0.10;;;;;;;-1.40;76.84;102831.22;5040192;28;20044;-75
2024/01/10 02:40:56;;;;;;;0.43;0.10;;;;;;;-1.38;76.57;102826.19;5039748;28;20041;-75
2024/01/10 02:43:24;;;;;;;0.22;0.10;;;;;;;-1.36;76.14;102824.59;5040669;28;20045;-79
2024/01/10 02:45:51;;;;;;;0.40;0.20;;;;;;;-1.40;76.65;102814.91;5046539;28;20075;-79
2024/01/10 02:48:18;;;;;;;0.65;0.10;;;;;;;-1.35;76.82;102828.91;5049761;28;20486;-79
2024/01/10 02:50:45;;;;;;;0.35;0.10;;;;;;;-1.37;76.55;102817.66;5049282;28;20503;-78
2024/01/10 02:53:12;;;;;;;0.20;0.05;;;;;;;-1.33;77.28;102835.91;5042090;28;20196;-79
2024/01/10 02:55:40;;;;;;;0.10;0.10;;;;;;;-1.33;76.64;102832.47;5044892;28;20471;-79
2024/01/10 02:58:07;;;;;;;0.17;0.10;;;;;;;-1.31;76.53;102829.22;5050195;28;20048;-79
2024/01/10 03:00:35;;;;;;;0.08;0.05;;;;;;;-1.33;76.55;102820.50;5047903;28;20052;-79
2024/01/10 03:03:02;;;;;;;0.15;0.10;;;;;;;-1.31;77.16;102825.75;5051059;28;20454;-79
2024/01/10 03:05:29;;;;;;;0.15;0.10;;;;;;;-1.29;76.97;102826.72;5046526;28;20126;-79
2024/01/10 03:07:56;;;;;;;0.10;0.05;;;;;;;-1.29;76.78;102824.16;5046208;28;20053;-79
2024/01/10 03:10:23;;;;;;;0.47;0.10;;;;;;;-1.30;76.51;102810.41;5040953;28;20521;-79
2024/01/10 03:12:50;;;;;;;0.10;0.10;;;;;;;-1.28;76.48;102813.97;5045506;28;20123;-79
2024/01/10 03:15:16;;;;;;;0.20;0.10;;;;;;;-1.28;76.84;102819.13;5047049;28;20041;-80
2024/01/10 03:17:45;;;;;;;0.20;0.10;;;;;;;-1.28;76.63;102824.25;5041583;28;20041;-79
2024/01/10 03:20:13;;;;;;;0.25;0.10;;;;;;;-1.29;76.85;102816.44;5044465;28;20407;-79
2024/01/10 03:22:39;;;;;;;0.32;0.20;;;;;;;-1.27;77.30;102817.41;5046189;28;20158;-79
2024/01/10 03:25:07;;;;;;;0.65;0.10;;;;;;;-1.29;77.12;102812.19;5051167;28;20141;-80
2024/01/10 03:27:34;;;;;;;0.40;0.10;;;;;;;-1.27;77.32;102826.00;5048572;28;20049;-79
2024/01/10 03:30:01;;;;;;;1.08;0.30;;;;;;;-1.26;77.13;102827.81;5050464;28;20045;-79
2024/01/10 03:32:28;;;;;;;0.10;0.10;;;;;;;-1.36;76.39;102810.06;5044714;28;20052;-80
2024/01/10 03:34:56;;;;;;;0.10;0.10;;;;;;;-1.29;76.53;102811.31;5048486;28;20076;-79
2024/01/10 03:37:23;;;;;;;0.10;0.08;;;;;;;-1.29;76.54;102807.03;5048978;28;20081;-79
2024/01/10 03:39:50;;;;;;;0.10;0.10;;;;;;;-1.27;76.37;102813.16;5047912;28;20560;-79
2024/01/10 03:42:17;;;;;;;0.75;0.10;;;;;;;-1.27;76.74;102813.16;5042623;28;20073;-79
2024/01/10 03:44:44;;;;;;;0.22;0.10;;;;;;;-1.28;76.44;102808.84;5042092;28;20148;-77
2024/01/10 03:47:11;;;;;;;0.35;0.10;;;;;;;-1.28;76.96;102802.81;5043330;28;20064;-77
2024/01/10 03:49:38;;;;;;;0.13;0.10;;;;;;;-1.29;76.58;102795.91;5047527;28;20120;-77
2024/01/10 03:52:06;;;;;;;0.40;0.10;;;;;;;-1.29;76.71;102796.78;5038752;28;20103;-78
2024/01/10 03:54:34;;;;;;;0.20;0.08;;;;;;;-1.30;76.25;102805.28;5038476;28;20069;-75
2024/01/10 03:57:01;;;;;;;0.45;0.10;;;;;;;-1.30;76.55;102800.16;5036097;28;20095;-76
2024/01/10 03:59:28;;;;;;;0.20;0.10;;;;;;;-1.30;76.37;102804.41;5040913;28;20141;-76
2024/01/10 04:01:55;;;;;;;2.03;0.10;;;;;;;-1.30;76.28;102804.41;5041690;28;20091;-76
2024/01/10 04:04:22;;;;;;;0.57;0.10;;;;;;;-1.30;76.70;102799.28;5037058;28;20115;-76
2024/01/10 04:06:49;;;;;;;0.77;0.10;;;;;;;-1.30;76.49;102799.28;5038264;28;20126;-75
2024/01/10 04:09:17;;;;;;;0.20;0.10;;;;;;;-1.30;76.84;102800.16;5038077;28;20523;-76
2024/01/10 04:11:44;;;;;;;0.60;0.10;;;;;;;-1.30;75.94;102795.00;5033806;28;20083;-75
2024/01/10 04:14:11;;;;;;;0.05;0.00;;;;;;;-1.32;76.92;102794.03;5039685;28;20107;-75
2024/01/10 04:16:38;;;;;;;0.30;0.03;;;;;;;-1.32;76.25;102782.88;5041805;28;20048;-76
2024/01/10 04:19:06;;;;;;;0.20;0.10;;;;;;;-1.32;76.87;102786.31;5042705;28;20077;-78
2024/01/10 04:21:33;;;;;;;0.20;0.10;;;;;;;-1.32;76.65;102790.59;5045048;28;20045;-76
2024/01/10 04:23:59;;;;;;;0.10;0.10;;;;;;;-1.34;76.85;102777.66;5040034;28;20073;-76
2024/01/10 04:26:28;;;;;;;0.20;0.10;;;;;;;-1.34;76.12;102777.66;5041154;28;20136;-75
2024/01/10 04:28:55;;;;;;;0.10;0.10;;;;;;;-1.34;76.93;102764.84;5041504;28;20091;-75
2024/01/10 04:31:22;;;;;;;0.20;0.10;;;;;;;-1.35;76.34;102768.19;5041847;28;20087;-76
2024/01/10 04:33:49;;;;;;;0.17;0.10;;;;;;;-1.44;76.64;102754.81;5042977;28;20128;-75
2024/01/10 04:36:16;;;;;;;0.03;0.00;;;;;;;-1.36;76.06;102778.38;5043306;28;20530;-75
2024/01/10 04:38:43;;;;;;;0.10;0.00;;;;;;;-1.35;77.10;102780.13;5040220;28;20076;-75
2024/01/10 04:41:10;;;;;;;0.20;0.10;;;;;;;-1.44;76.53;102759.94;5043742;28;20471;-75
2024/01/10 04:43:38;;;;;;;0.20;0.10;;;;;;;-1.35;76.52;102777.56;5040276;28;20470;-75
2024/01/10 04:46:05;;;;;;;0.05;0.00;;;;;;;-1.36;76.70;102774.13;5039499;28;20134;-75
2024/01/10 04:48:32;;;;;;;0.17;0.10;;;;;;;-1.37;77.03;102756.94;5039722;28;20053;-75
2024/01/10 04:50:59;;;;;;;1.25;0.10;;;;;;;-1.37;76.79;102764.66;5041322;28;20163;-74
2024/01/10 04:53:26;;;;;;;0.20;0.10;;;;;;;-1.38;77.33;102762.88;5040231;28;20069;-78
2024/01/10 04:55:53;;;;;;;0.10;0.03;;;;;;;-1.38;77.17;102765.44;5041856;28;20143;-78
2024/01/10 04:58:20;;;;;;;0.82;0.10;;;;;;;-1.37;76.41;102766.31;5040609;28;20081;-78
2024/01/10 05:00:49;;;;;;;0.32;0.03;;;;;;;-1.40;76.56;102761.88;5045848;28;20077;-78
2024/01/10 05:03:15;;;;;;;0.10;0.10;;;;;;;-1.39;76.57;102763.66;5041165;28;20055;-73
2024/01/10 05:05:42;;;;;;;0.47;0.08;;;;;;;-1.39;76.56;102770.50;5044162;28;20460;-72
2024/01/10 05:08:09;;;;;;;0.32;0.10;;;;;;;-1.39;76.57;102766.25;5037801;28;20140;-73
2024/01/10 05:10:36;;;;;;;0.40;0.10;;;;;;;-1.39;77.14;102763.66;5039217;28;20095;-72
2024/01/10 05:13:03;;;;;;;0.10;0.00;;;;;;;-1.40;77.20;102756.75;5039743;28;20084;-72
2024/01/10 05:15:30;;;;;;;2.53;0.10;;;;;;;-1.41;76.69;102743.84;5040795;28;20591;-72
2024/01/10 05:17:59;;;;;;;0.20;0.00;;;;;;;-1.45;76.85;102747.91;5038926;28;20076;-73
2024/01/10 05:20:25;;;;;;;0.88;0.08;;;;;;;-1.41;76.38;102760.13;5041330;28;20053;-72
2024/01/10 05:22:52;;;;;;;0.20;0.10;;;;;;;-1.42;76.39;102760.94;5039344;28;20045;-73
2024/01/10 05:25:19;;;;;;;0.30;0.10;;;;;;;-1.41;76.83;102762.69;5042072;28;20147;-73
2024/01/10 05:27:46;;;;;;;0.20;0.00;;;;;;;-1.44;76.49;102754.81;5041480;28;20053;-72
2024/01/10 05:30:14;;;;;;;0.45;0.10;;;;;;;-1.44;77.07;102744.53;5042313;28;20045;-73
2024/01/10 05:32:41;;;;;;;0.47;0.20;;;;;;;-1.42;76.59;102755.78;5037689;28;20037;-72
2024/01/10 05:35:10;;;;;;;3.13;0.15;;;;;;;-1.41;76.25;102743.84;5040648;28;20081;-72
2024/01/10 05:37:37;;;;;;;0.90;0.10;;;;;;;-1.42;76.50;102757.47;5037935;28;20055;-73
2024/01/10 05:40:05;;;;;;;0.40;0.10;;;;;;;-1.42;76.77;102757.47;5038366;28;20470;-74
2024/01/10 05:42:32;;;;;;;0.52;0.17;;;;;;;-1.43;76.62;102746.31;5041436;28;20070;-72
2024/01/10 05:44:59;;;;;;;0.20;0.10;;;;;;;-1.44;77.15;102752.25;5038839;28;20115;-74
2024/01/10 05:47:26;;;;;;;1.80;0.10;;;;;;;-1.43;76.56;102761.69;5039158;28;20578;-72
2024/01/10 05:49:54;;;;;;;0.50;0.10;;;;;;;-1.43;76.51;102761.69;5040208;28;20049;-73
2024/01/10 05:52:22;;;;;;;0.68;0.10;;;;;;;-1.44;76.47;102762.50;5038443;28;20056;-73
2024/01/10 05:54:49;;;;;;;0.10;0.00;;;;;;;-1.43;76.74;102763.38;5037312;28;20049;-73
2024/01/10 05:57:16;;;;;;;0.20;0.10;;;;;;;-1.42;76.63;102762.63;5038349;28;20049;-73
2024/01/10 05:59:43;;;;;;;1.77;0.10;;;;;;;-1.43;76.70;102763.38;5038685;28;20057;-74
2024/01/10 06:02:10;;;;;;;0.00;0.00;;;;;;;-1.44;77.01;102764.19;5041451;28;20163;-73
2024/01/10 06:04:37;;;;;;;0.00;0.00;;;;;;;-1.44;76.48;102759.94;5041176;28;20108;-76
2024/01/10 06:07:05;;;;;;;0.10;0.10;;;;;;;-1.44;77.04;102752.25;5038507;28;20081;-74
2024/01/10 06:09:33;;;;;;;0.10;0.05;;;;;;;-1.43;76.80;102746.31;5037507;28;20042;-74
2024/01/10 06:12:00;;;;;;;0.20;0.10;;;;;;;-1.43;76.70;102745.41;5038223;28;20559;-74
2024/01/10 06:14:27;;;;;;;2.35;0.10;;;;;;;-1.45;77.28;102753.06;5043808;28;20091;-74
2024/01/10 06:16:54;;;;;;;0.20;0.05;;;;;;;-1.45;76.44;102753.06;5036368;28;20077;-74
2024/01/10 06:19:21;;;;;;;0.45;0.10;;;;;;;-1.44;76.61;102759.94;5037512;28;20045;-75
2024/01/10 06:21:48;;;;;;;0.15;0.10;;;;;;;-1.44;76.69;102756.50;5040547;28;20499;-74
2024/01/10 06:24:15;;;;;;;0.10;0.10;;;;;;;-1.44;76.60;102759.06;5036811;28;20109;-75
2024/01/10 06:26:43;;;;;;;0.15;0.08;;;;;;;-1.43;76.74;102755.69;5037116;28;20510;-75
2024/01/10 06:29:10;;;;;;;2.92;0.10;;;;;;;-1.45;76.29;102750.47;5036775;28;20049;-74
2024/01/10 06:31:37;;;;;;;0.10;0.10;;;;;;;-1.45;76.46;102758.19;5036216;28;20080;-74
2024/01/10 06:34:04;;;;;;;0.30;0.10;;;;;;;-1.46;76.70;102749.59;5039624;28;20076;-75
2024/01/10 06:36:31;;;;;;;0.45;0.10;;;;;;;-1.47;76.92;102754.63;5041042;28;20486;-75
2024/01/10 06:38:58;;;;;;;0.17;0.10;;;;;;;-1.46;77.44;102753.81;5037141;28;20139;-75
2024/01/10 06:41:25;;;;;;;0.20;0.10;;;;;;;-1.46;77.12;102754.75;5040247;28;20084;-75
2024/01/10 06:43:54;;;;;;;0.20;0.10;;;;;;;-1.47;76.35;102752.06;5037712;28;20052;-74
2024/01/10 06:46:21;;;;;;;0.90;0.08;;;;;;;-1.47;76.57;102745.25;5038910;28;20118;-75
2024/01/10 06:48:49;;;;;;;0.20;0.10;;;;;;;-1.46;77.15;102748.69;5039742;28;20505;-73
2024/01/10 06:51:17;;;;;;;0.75;0.10;;;;;;;-1.47;77.10;102746.94;5041814;28;20163;-73
2024/01/10 06:53:44;;;;;;;1.08;0.10;;;;;;;-1.48;77.43;102734.91;5036840;28;20056;-73
2024/01/10 06:56:11;;;;;;;0.32;0.10;;;;;;;-1.47;76.99;102747.81;5038026;28;20132;-74
2024/01/10 06:58:39;;;;;;;0.50;0.10;;;;;;;-1.56;76.50;102734.44;5039190;28;20053;-75
2024/01/10 07:01:13;;;;;;;22.25;0.93;;;;;;;-1.47;76.96;102750.38;5039613;28;20092;-77
2024/01/10 07:03:40;;;;;;;0.10;0.10;;;;;;;-1.47;77.10;102749.50;5039833;28;20049;-75
2024/01/10 07:06:07;;;;;;;1.00;0.10;;;;;;;-1.47;77.08;102745.25;5037382;28;20083;-75
2024/01/10 07:08:34;;;;;;;0.30;0.10;;;;;;;-1.47;76.65;102736.66;5036397;28;20143;-76
2024/01/10 07:11:01;;;;;;;0.08;0.00;;;;;;;-1.47;76.91;102745.25;5035434;28;20080;-76
2024/01/10 07:13:28;;;;;;;1.25;0.10;;;;;;;-1.46;76.34;102738.41;5037521;28;20073;-80
2024/01/10 07:15:55;;;;;;;0.15;0.05;;;;;;;-1.47;77.46;102744.38;5048061;28;20053;-80
2024/01/10 07:18:23;;;;;;;0.47;0.10;;;;;;;-1.51;76.54;102747.56;5043511;28;20144;-80
2024/01/10 07:20:50;;;;;;;0.10;0.10;;;;;;;-1.49;76.43;102757.09;5043248;28;20057;-79
2024/01/10 07:23:17;;;;;;;0.65;0.20;;;;;;;-1.46;77.16;102764.09;5047655;28;20045;-75
2024/01/10 07:25:44;;;;;;;0.22;0.10;;;;;;;-1.45;76.74;102765.88;5039663;28;20112;-75
2024/01/10 07:28:11;;;;;;;0.20;0.10;;;;;;;-1.48;76.73;102756.31;5038769;28;20073;-75
2024/01/10 07:30:38;;;;;;;0.10;0.10;;;;;;;-1.46;77.07;102756.41;5040566;28;20077;-76
2024/01/10 07:33:06;;;;;;;0.30;0.10;;;;;;;-1.46;77.07;102757.31;5036437;28;20110;-76
2024/01/10 07:35:34;;;;;;;0.40;0.10;;;;;;;-1.46;76.70;102761.53;5038274;28;20554;-76
2024/01/10 07:38:01;;;;;;;0.77;0.25;;;;;;;-1.48;76.17;102751.19;5041398;28;20083;-75
2024/01/10 07:40:28;;;;;;;0.90;0.10;;;;;;;-1.47;76.33;102759.78;5038780;28;20219;-76
2024/01/10 07:42:55;;;;;;;0.30;0.10;;;;;;;-1.48;77.21;102768.28;5040531;28;20124;-75
2024/01/10 07:45:22;;;;;;;0.82;0.30;;;;;;;-1.49;77.17;102771.63;5041709;28;20056;-75
2024/01/10 07:47:49;;;;;;;0.28;0.15;;;;;;;-1.47;76.32;102780.31;5038269;28;20207;-76
2024/01/10 07:50:16;;;;;;;0.30;0.10;;;;;;;-1.48;77.03;102773.41;5040390;28;20076;-75
2024/01/10 07:52:45;;;;;;;2.25;0.10;;;;;;;-1.50;76.93;102765.59;5044082;28;20084;-76
2024/01/10 07:55:13;;;;;;;0.40;0.20;;;;;;;-1.49;76.21;102769.06;5043919;28;20036;-75
2024/01/10 07:57:42;;;;;;;0.22;0.15;;;;;;;-1.51;76.91;102766.41;5041623;28;20079;-76
2024/01/10 08:00:10;;;;;;;0.10;0.10;;;;;;;-1.50;76.54;102769.84;5042247;28;20052;-75
2024/01/10 08:02:37;;;;;;;0.20;0.10;;;;;;;-1.53;76.91;102754.28;5045045;28;20049;-76
2024/01/10 08:05:08;;;;;;;0.47;0.10;;;;;;;-1.50;76.58;102750.19;5044988;28;20080;-76
2024/01/10 08:07:36;;;;;;;0.80;0.10;;;;;;;-1.49;76.45;102751.09;5044184;28;20103;-75
2024/01/10 08:10:07;;;;;;;0.17;0.10;;;;;;;-1.49;77.06;102748.50;5039207;28;20904;-75
2024/01/10 08:12:34;;;;;;;0.05;0.05;;;;;;;-1.49;76.68;102741.69;5043870;28;20045;-75
2024/01/10 08:15:01;;;;;;;0.60;0.10;;;;;;;-1.47;76.74;102749.50;5044377;28;20526;-75
2024/01/10 08:17:28;;;;;;;0.40;0.05;;;;;;;-1.48;77.25;102742.59;5039144;28;20053;-76
2024/01/10 08:19:55;;;;;;;0.30;0.10;;;;;;;-1.46;76.95;102741.00;5046594;28;20667;-75
2024/01/10 08:22:22;;;;;;;0.85;0.10;;;;;;;-1.48;76.77;102734.91;5037663;28;20522;-75
2024/01/10 08:24:49;;;;;;;0.35;0.10;;;;;;;-1.45;77.16;102747.91;5043094;28;20053;-75
2024/01/10 08:27:18;;;;;;;0.10;0.10;;;;;;;-1.48;77.12;102748.63;5042655;28;20080;-76
2024/01/10 08:29:45;;;;;;;4.95;0.80;;;;;;;-1.44;76.34;102739.41;5045583;28;20106;-76
2024/01/10 08:32:12;;;;;;;0.77;0.10;;;;;;;-1.43;77.02;102750.56;5035931;28;20484;-76
2024/01/10 08:34:39;;;;;;;0.17;0.10;;;;;;;-1.42;77.32;102763.50;5039464;28;20086;-74
2024/01/10 08:37:06;;;;;;;0.30;0.10;;;;;;;-1.42;77.23;102758.38;5041038;28;20107;-72
2024/01/10 08:39:33;;;;;;;0.45;0.10;;;;;;;-1.41;76.85;102759.25;5042280;28;20587;-73
2024/01/10 08:42:00;;;;;;;0.20;0.10;;;;;;;-1.40;76.83;102743.91;5041010;28;20077;-73
2024/01/10 08:44:28;;;;;;;2.47;0.20;;;;;;;-1.39;76.92;102731.97;5042456;28;20072;-72
2024/01/10 08:46:55;;;;;;;0.40;0.10;;;;;;;-1.37;76.68;102728.72;5040890;28;20467;-72
2024/01/10 08:49:22;;;;;;;1.20;0.17;;;;;;;-1.36;77.03;102722.75;5045012;28;20964;-74
2024/01/10 08:51:49;;;;;;;0.30;0.20;;;;;;;-1.34;77.47;102727.97;5040233;28;20566;-77
2024/01/10 08:54:19;;;;;;;0.20;0.10;;;;;;;-1.33;77.12;102722.06;5042376;28;20069;-76
2024/01/10 08:56:46;;;;;;;0.13;0.08;;;;;;;-1.32;77.57;102729.84;5036682;28;20052;-75
2024/01/10 08:59:16;;;;;;;0.93;0.13;;;;;;;-1.30;76.43;102727.38;5037055;28;20087;-76
2024/01/10 09:01:44;;;;;;;0.95;0.10;;;;;;;-1.28;77.45;102725.78;5039907;28;20077;-75
2024/01/10 09:04:11;;;;;;;0.93;0.20;;;;;;;-1.27;77.63;102718.16;5043779;28;20072;-75
2024/01/10 09:06:38;;;;;;;2.50;0.15;;;;;;;-1.26;77.22;102722.50;5043930;28;20044;-73
2024/01/10 09:09:05;;;;;;;0.60;0.13;;;;;;;-1.26;77.69;102719.94;5039513;28;20095;-74
2024/01/10 09:11:32;;;;;;;0.22;0.10;;;;;;;-1.21;76.69;102716.72;5042229;28;20044;-74
2024/01/10 09:13:59;;;;;;;1.63;0.30;;;;;;;-1.19;77.07;102720.28;5041450;28;20084;-75
2024/01/10 09:16:26;;;;;;;0.55;0.10;;;;;;;-1.19;76.64;102715.13;5041540;28;20515;-74
2024/01/10 09:18:57;;;;;;;1.13;0.20;;;;;;;-1.18;77.30;102701.50;5041877;28;20049;-74
2024/01/10 09:21:24;;;;;;;1.75;0.10;;;;;;;-1.15;77.30;102706.78;5039480;28;20531;-74
2024/01/10 09:23:52;;;;;;;0.20;0.10;;;;;;;-1.11;77.29;102708.75;5039533;28;20140;-74
2024/01/10 09:26:20;;;;;;;0.30;0.10;;;;;;;-1.10;76.37;102705.38;5042845;28;20083;-74
2024/01/10 09:28:47;;;;;;;2.80;0.10;;;;;;;-1.10;76.90;102701.13;5044744;28;20060;-79
2024/01/10 09:31:20;;;;;;;0.77;0.17;;;;;;;-1.07;76.81;102695.28;5039134;28;20080;-76
2024/01/10 09:33:47;;;;;;;0.55;0.13;;;;;;;-1.07;76.64;102687.56;5044109;28;20041;-71
2024/01/10 09:36:16;;;;;;;0.65;0.10;;;;;;;-1.04;77.17;102693.75;5043311;28;20084;-71
2024/01/10 09:38:42;;;;;;;0.40;0.13;;;;;;;-1.03;77.04;102692.06;5040349;28;20076;-71
2024/01/10 09:41:13;;;;;;;0.47;0.10;;;;;;;-1.11;77.15;102662.53;5042020;28;20081;-70
2024/01/10 09:43:40;;;;;;;0.52;0.10;;;;;;;-0.97;76.90;102681.22;5038892;28;20053;-72
2024/01/10 09:46:10;;;;;;;0.57;0.30;;;;;;;-0.96;76.44;102681.34;5039052;28;20080;-73
2024/01/10 09:48:37;;;;;;;0.40;0.10;;;;;;;-0.94;77.11;102674.59;5041109;28;20060;-72
2024/01/10 09:51:04;;;;;;;0.68;0.45;;;;;;;-0.92;77.19;102662.69;5043803;28;20095;-71
2024/01/10 09:53:39;;;;;;;0.17;0.10;;;;;;;-0.89;77.45;102669.69;5041755;28;20081;-72
2024/01/10 09:56:08;;;;;;;;;;;;;;;-0.87;76.87;102652.69;5041154;28;20060;-70
2024/01/10 09:58:38;;;;;;;0.20;0.10;;;;;;;-0.85;76.81;102653.66;5036383;28;19979;-72
2024/01/10 10:01:06;;;;;;;1.75;0.20;;;;;;;-0.84;76.98;102653.72;5042117;28;20100;-73
2024/01/10 10:03:38;;;;;;;1.70;0.10;;;;;;;-0.82;76.48;102640.97;5041156;28;20997;-73
2024/01/10 10:06:06;;;;;;;0.50;0.10;;;;;;;-0.80;77.06;102645.41;5039787;28;20472;-71
2024/01/10 10:08:34;;;;;;;0.10;0.10;;;;;;;-0.78;77.36;102646.34;5041952;28;20053;-70
2024/01/10 10:11:02;;;;;;;0.65;0.20;;;;;;;-0.75;77.00;102653.34;5039446;28;20081;-71
2024/01/10 10:13:30;;;;;;;0.10;0.00;;;;;;;-0.73;76.92;102656.00;5040545;28;20059;-70
2024/01/10 10:16:01;;;;;;;0.30;0.10;;;;;;;-0.68;76.92;102654.56;5036940;28;20088;-71
2024/01/10 10:18:28;;;;;;;0.10;0.10;;;;;;;-0.67;77.02;102664.03;5038182;28;20048;-71
2024/01/10 10:21:09;;;;;;;0.50;0.10;;;;;;;-0.63;77.34;102665.97;5039218;28;20045;-70
2024/01/10 10:23:37;;;;;;;0.15;0.10;;;;;;;-0.64;77.07;102661.63;5037818;28;20045;-70
2024/01/10 10:26:14;;;;;;;0.63;0.10;;;;;;;-0.60;76.84;102643.03;5039188;28;20089;-71
2024/01/10 10:28:42;;;;;;;0.95;0.20;;;;;;;-0.57;76.72;102649.19;5040250;28;20072;-71
2024/01/10 10:31:09;;;;;;;0.20;0.13;;;;;;;-0.53;76.61;102649.34;5038529;28;20563;-73
2024/01/10 10:33:38;;;;;;;2.28;1.05;;;;;;;-0.52;76.50;102652.00;5042401;28;20047;-71
2024/01/10 10:36:05;;;;;;;0.65;0.10;;;;;;;-0.47;77.21;102644.53;5042439;28;20561;-71
2024/01/10 10:38:32;;;;;;;0.35;0.13;;;;;;;-0.45;77.10;102635.22;5037618;28;20049;-72
2024/01/10 10:41:01;;;;;;;0.65;0.13;;;;;;;-0.43;76.70;102637.06;5041140;28;20048;-71
2024/01/10 10:43:33;;;;;;;0.10;0.10;;;;;;;-0.39;76.89;102644.13;5042987;28;20045;-84
2024/01/10 10:46:02;;;;;;;1.90;0.10;;;;;;;-0.37;76.86;102637.38;5050127;28;20523;-84
2024/01/10 10:48:33;;;;;;;0.47;0.10;;;;;;;-0.34;76.16;102650.41;5048288;28;20052;-81
2024/01/10 10:51:06;;;;;;;0.43;0.15;;;;;;;-0.32;76.55;102645.31;5051239;28;20085;-84
2024/01/10 10:53:35;;;;;;;0.47;0.47;;;;;;;-0.30;76.33;102647.97;5040554;28;20045;-77
2024/01/10 10:56:07;;;;;;;2.92;0.10;;;;;;;-0.27;76.54;102638.72;5040163;28;20499;-77
2024/01/10 10:58:36;;;;;;;0.30;0.10;;;;;;;-0.25;76.23;102637.13;5045459;28;20041;-77
2024/01/10 11:01:06;;;;;;;0.20;0.10;;;;;;;-0.21;76.43;102633.00;5044123;28;20503;-77
2024/01/10 11:03:36;;;;;;;1.05;0.10;;;;;;;-0.19;76.70;102628.84;5045917;28;20475;-77
2024/01/10 11:06:05;;;;;;;0.25;0.10;;;;;;;-0.16;76.31;102632.44;5046129;28;20052;-77
2024/01/10 11:08:36;;;;;;;0.10;0.10;;;;;;;-0.13;75.98;102634.28;5044112;28;20049;-77
2024/01/10 11:11:21;;;;;;;2.88;0.10;;;;;;;-0.11;76.23;102635.28;5043893;28;20076;-77
2024/01/10 11:14:02;;;;;;;1.25;0.20;;;;;;;-0.08;76.28;102632.84;5040141;28;20085;-77
2024/01/10 11:17:05;;;;;;;0.25;0.10;;;;;;;-0.04;76.34;102633.88;5044037;28;20115;-77
2024/01/10 11:20:09;;;;;;;0.50;0.15;;;;;;;-0.02;76.48;102621.97;5021394;28;20085;-77
2024/01/10 11:23:03;;;;;;;0.25;0.20;;;;;;;0.01;75.90;102620.44;5040667;28;20525;-76
2024/01/10 11:25:32;;;;;;;1.88;0.10;;;;;;;0.03;76.75;102612.81;5044125;28;20057;-76
2024/01/10 11:28:05;;;;;;;0.40;0.10;;;;;;;0.05;76.41;102617.22;5044133;28;20043;-76
2024/01/10 11:30:37;;;;;;;1.95;0.40;;;;;;;0.03;76.25;102597.38;5050050;28;20107;-76